Terminal Aerodrome Forecast
Issued by NWS

Home | Current Version | Previous Version | Text Only | Print | Product List | Glossary On
Versions: 1 2 3 4 5 6 7 8 9 10 11 12 13 14
000
FTUS43 KPAH 182320
TAFOWB
TAF
KOWB 182320Z 1900/1924 29005KT P6SM FEW120
     FM191100 22005KT P6SM FEW060 SCT120
     FM191500 27006KT P6SM FEW030
     FM191800 30006KT P6SM FEW040=

USA.gov is the U.S. government's official web portal to all federal, state and local government web resources and services.